CheckWX is a tool to help pilots better visualize weather data.  It is not intended as a substitute for an official pre-flight weather briefing.

12:29:13 UTC

HTDA METAR
Julius Nyerere International Airport
Dar es Salaam, Tanzania
Current

1 hour ago

HTDA 181100Z 02010KT 9999 BKN025 34/26 Q1009 NOSIG
Observed
Feb-18 @ 11:00 UTC
Wind
  • 020° at 10 KTS
Visibility
10,000+ meters
Flight Rules
MVFR
Cloud Levels
  • Broken at 2,500' AGL
Temperature
34°C / 93°F
Dewpoint
26°C / 79°F
Humidity
63%
Altimeter
29.79" Hg
Pressure
1008.92 hPa
Previous

2 hours ago

HTDA 181000Z 03010KT 9999 FEW024 BKN025 33/26 Q1010 NOSIG
Observed
Feb-18 @ 10:00 UTC
Wind
  • 030° at 10 KTS
Visibility
10,000+ meters
Flight Rules
MVFR
Cloud Levels
  • Few at 2,400' AGL
  • Broken at 2,500' AGL
Temperature
33°C / 91°F
Dewpoint
26°C / 79°F
Humidity
67%
Altimeter
29.82" Hg
Pressure
1009.92 hPa
Previous

3 hours ago

HTDA 180900Z 04006KT 9999 SCT022 BKN023 32/26 Q1011 NOSIG
Observed
Feb-18 @ 09:00 UTC
Wind
  • 040° at 6 KTS
Visibility
10,000+ meters
Flight Rules
MVFR
Cloud Levels
  • Scattered at 2,200' AGL
  • Broken at 2,300' AGL
Temperature
32°C / 90°F
Dewpoint
26°C / 79°F
Humidity
71%
Altimeter
29.85" Hg
Pressure
1010.92 hPa